Time;durP1;ratioP1;P1;durP2;ratioP2;P2;SDS_P1;SDS_P2;PMS_P1;PMS_P2;Temp;Humidity;BMP_temperature;BMP_pressure;BME280_temperature;BME280_humidity;BME280_pressure;Samples;Min_cycle;Max_cycle;Signal;HPM_P1;HPM_P2
2021/08/09 00:00:13;;;;;;;11.13;3.50;;;16.00;99.90;;;15.68;100.00;101213.25;4121047;28;20023;-77
2021/08/09 00:02:13;;;;;;;10.25;3.25;;;16.00;99.90;;;15.68;100.00;101213.25;4103575;28;20027;-77
2021/08/09 00:04:14;;;;;;;10.55;3.05;;;16.00;99.90;;;15.76;100.00;101220.34;4119835;28;20038;-77
2021/08/09 00:06:15;;;;;;;10.98;3.63;;;16.10;99.90;;;15.59;100.00;101198.34;4135764;28;20056;-77
2021/08/09 00:08:18;;;;;;;10.70;3.70;;;16.10;99.90;;;15.68;100.00;101199.13;4120872;28;20082;-77
2021/08/09 00:10:19;;;;;;;17.55;4.43;;;16.10;99.90;;;15.72;100.00;101198.59;4119810;28;20394;-77
2021/08/09 00:12:20;;;;;;;13.48;4.20;;;16.10;99.90;;;15.81;100.00;101194.84;4120470;28;20030;-77
2021/08/09 00:14:24;;;;;;;11.85;4.18;;;16.10;99.90;;;15.89;100.00;101191.28;4120745;28;20034;-76
2021/08/09 00:16:25;;;;;;;15.55;4.35;;;16.20;99.90;;;15.93;100.00;101205.91;4120714;28;20039;-76
2021/08/09 00:18:26;;;;;;;10.48;3.22;;;16.30;99.90;;;15.94;100.00;101184.44;4103202;28;20039;-76
2021/08/09 00:20:27;;;;;;;12.88;3.53;;;16.20;99.90;;;15.95;100.00;101198.56;4120410;28;20034;-76
2021/08/09 00:22:28;;;;;;;11.57;2.95;;;16.30;99.90;;;15.83;100.00;101200.81;4120652;28;20037;-77
2021/08/09 00:24:29;;;;;;;8.20;3.30;;;16.20;99.90;;;15.93;100.00;101206.72;4110799;28;20134;-76
2021/08/09 00:26:30;;;;;;;12.35;3.20;;;16.20;99.90;;;15.90;100.00;101214.25;4118905;28;20050;-76
2021/08/09 00:28:31;;;;;;;9.75;3.40;;;16.20;99.90;;;15.94;100.00;101208.41;4120580;28;20026;-77
2021/08/09 00:30:32;;;;;;;9.25;2.83;;;16.20;99.90;;;15.98;100.00;101207.00;4120619;28;20026;-77
2021/08/09 00:32:33;;;;;;;13.25;4.07;;;16.30;99.90;;;15.90;100.00;101206.25;4120657;28;20027;-77
2021/08/09 00:34:34;;;;;;;10.93;4.40;;;16.30;99.90;;;15.83;100.00;101206.13;4120611;28;20030;-77
2021/08/09 00:36:35;;;;;;;10.23;3.65;;;16.20;99.90;;;15.84;100.00;101194.50;4119312;28;20067;-77
2021/08/09 00:38:36;;;;;;;13.50;4.07;;;16.20;99.90;;;15.93;100.00;101203.25;4119254;28;20035;-77
2021/08/09 00:40:37;;;;;;;14.38;3.92;;;16.30;99.90;;;15.90;100.00;101206.25;4135145;28;20100;-77
2021/08/09 00:42:38;;;;;;;7.07;3.10;;;16.30;99.90;;;15.79;100.00;101196.88;4132281;28;20504;-77
2021/08/09 00:44:39;;;;;;;9.90;3.60;;;16.20;99.90;;;15.95;100.00;101206.53;4119017;28;20050;-77
2021/08/09 00:46:40;;;;;;;10.90;3.75;;;16.20;99.90;;;15.82;100.00;101193.88;4102985;28;20038;-77
2021/08/09 00:48:40;;;;;;;9.43;3.35;;;16.20;99.90;;;15.87;100.00;101198.63;4119205;28;20027;-77
2021/08/09 00:50:42;;;;;;;10.90;3.85;;;16.20;99.90;;;15.90;100.00;101206.25;4118592;28;20039;-76
2021/08/09 00:52:42;;;;;;;12.05;3.58;;;16.20;99.90;;;15.89;100.00;101208.09;4120336;28;20368;-77
2021/08/09 00:54:44;;;;;;;15.07;3.63;;;16.20;99.90;;;15.88;100.00;101200.28;4134995;28;20113;-77
2021/08/09 00:56:45;;;;;;;10.77;3.10;;;16.20;99.90;;;15.86;100.00;101199.66;4118683;28;20113;-77
2021/08/09 00:58:46;;;;;;;11.05;3.40;;;16.20;99.90;;;15.81;100.00;101186.03;4119059;28;20391;-77
2021/08/09 01:00:47;;;;;;;7.57;2.60;;;16.20;99.90;;;15.72;100.00;101177.31;4120153;28;20031;-77
2021/08/09 01:02:48;;;;;;;10.52;3.30;;;16.20;99.90;;;15.83;100.00;101174.22;4118784;28;20469;-77
2021/08/09 01:04:49;;;;;;;7.85;3.42;;;16.20;99.90;;;15.94;100.00;101187.09;4119953;28;20030;-77
2021/08/09 01:06:50;;;;;;;12.95;3.13;;;16.20;99.90;;;15.99;100.00;101178.56;4119932;28;20030;-77
2021/08/09 01:09:27;;;;;;;9.73;3.67;;;16.20;99.90;;;15.91;100.00;101194.63;4118571;28;20037;-77
2021/08/09 01:11:41;;;;;;;7.82;3.72;;;16.20;99.90;;;15.97;100.00;101188.56;4134504;28;20030;-77
2021/08/09 01:14:17;;;;;;;8.57;3.00;;;16.20;99.90;;;15.72;100.00;101169.31;4118568;28;20026;-77
2021/08/09 01:16:31;;;;;;;8.85;3.00;;;16.20;99.90;;;15.75;100.00;101178.78;4132658;28;20612;-77
2021/08/09 01:18:36;;;;;;;14.07;3.63;;;16.20;99.90;;;15.78;100.00;101168.63;4118589;28;20062;-77
2021/08/09 01:21:00;;;;;;;6.82;3.20;;;16.20;99.90;;;15.86;100.00;101170.41;4118897;28;20779;-77
2021/08/09 01:23:43;;;;;;;7.43;3.13;;;16.20;99.90;;;15.80;100.00;101179.09;4119011;28;20098;-77
2021/08/09 01:26:16;;;;;;;11.38;3.80;;;16.20;99.90;;;15.80;100.00;101163.13;4119140;28;20430;-77
2021/08/09 01:28:19;;;;;;;9.55;2.60;;;16.20;99.90;;;15.80;100.00;101179.09;4134990;28;20030;-77
2021/08/09 01:30:22;;;;;;;7.73;3.30;;;16.20;99.90;;;15.74;100.00;101169.97;4151031;28;20022;-77
2021/08/09 01:32:24;;;;;;;8.32;2.97;;;16.10;99.90;;;15.83;100.00;101173.41;4118713;28;20023;-77
2021/08/09 01:34:27;;;;;;;11.50;2.80;;;16.20;99.90;;;15.87;100.00;101170.19;4102785;28;20042;-77
2021/08/09 01:36:30;;;;;;;8.63;3.25;;;16.20;99.90;;;15.93;100.00;101174.81;4118639;28;20034;-77
2021/08/09 01:38:33;;;;;;;11.02;3.58;;;16.20;99.90;;;15.85;100.00;101166.91;4118668;28;20039;-77
2021/08/09 01:40:36;;;;;;;10.32;2.95;;;16.20;99.90;;;15.77;100.00;101174.13;4118371;28;20035;-77
2021/08/09 01:42:41;;;;;;;8.18;3.28;;;16.20;99.90;;;15.83;100.00;101168.91;4102158;29;20114;-77
2021/08/09 01:44:42;;;;;;;9.80;3.22;;;16.20;99.90;;;15.70;100.00;101155.41;4134211;28;20034;-77
2021/08/09 01:46:44;;;;;;;11.75;3.40;;;16.20;99.90;;;15.79;100.00;101161.47;4102564;28;20026;-77
2021/08/09 01:48:46;;;;;;;9.63;2.95;;;16.20;99.90;;;15.92;100.00;101180.28;4086309;29;20027;-77
2021/08/09 01:50:49;;;;;;;8.18;3.00;;;16.30;99.90;;;15.98;100.00;101184.88;4103588;28;20031;-76
2021/08/09 01:52:51;;;;;;;10.13;3.90;;;16.30;99.90;;;15.90;100.00;101169.00;4103822;28;20050;-77
2021/08/09 01:54:52;;;;;;;9.25;4.30;;;16.30;99.90;;;15.99;100.00;101194.53;4103706;28;20023;-77
2021/08/09 01:56:54;;;;;;;6.95;3.00;;;16.30;99.90;;;15.98;100.00;101187.56;4102144;28;20059;-77
2021/08/09 01:58:55;;;;;;;12.15;3.70;;;16.20;99.90;;;15.91;100.00;101186.63;4102179;28;20131;-77
2021/08/09 02:00:56;;;;;;;12.70;3.55;;;16.30;99.90;;;15.89;100.00;101183.31;4118567;28;20027;-77
2021/08/09 02:02:57;;;;;;;10.80;3.20;;;16.20;99.90;;;15.84;100.00;101193.66;4118484;28;20037;-77
2021/08/09 02:05:14;;;;;;;8.82;3.53;;;16.20;99.90;;;15.80;100.00;101179.88;4086370;29;20063;-77
2021/08/09 02:07:15;;;;;;;10.75;3.22;;;16.20;99.90;;;15.85;100.00;101190.84;4103469;28;20502;-77
2021/08/09 02:09:16;;;;;;;5.25;2.55;;;16.20;99.90;;;15.77;100.00;101188.22;4102424;28;20031;-77
2021/08/09 02:11:34;;;;;;;7.50;2.80;;;16.20;99.90;;;15.76;100.00;101188.44;4134192;28;20027;-77
2021/08/09 02:13:47;;;;;;;9.25;2.60;;;16.20;99.90;;;15.85;100.00;101174.06;4087631;29;20039;-76
2021/08/09 02:16:13;;;;;;;8.15;3.13;;;16.20;99.90;;;15.78;100.00;101170.44;4118352;28;20414;-77
2021/08/09 02:18:58;;;;;;;7.43;3.30;;;16.20;99.90;;;15.93;100.00;101177.47;4103617;28;20450;-76
2021/08/09 02:21:05;;;;;;;8.87;3.30;;;16.20;99.90;;;15.90;100.00;101175.16;4129945;28;20080;-77
2021/08/09 02:23:14;;;;;;;7.57;3.00;;;16.30;99.90;;;15.96;100.00;101178.94;4102306;28;20036;-77
2021/08/09 02:25:19;;;;;;;6.90;3.00;;;16.30;99.90;;;15.81;100.00;101180.72;4115795;28;20041;-77
2021/08/09 02:27:22;;;;;;;4.00;2.20;;;16.30;99.90;;;15.85;100.00;101188.19;4119321;28;20026;-76
2021/08/09 02:29:29;;;;;;;4.95;2.60;;;16.30;99.90;;;15.94;100.00;101188.94;4118264;28;20022;-76
2021/08/09 02:31:33;;;;;;;10.82;3.45;;;16.20;99.90;;;15.90;100.00;101191.13;4118100;28;20026;-76
2021/08/09 02:33:35;;;;;;;9.55;2.65;;;16.30;99.90;;;15.91;100.00;101197.28;4119439;28;20033;-77
2021/08/09 02:35:37;;;;;;;10.13;2.60;;;16.30;99.90;;;15.91;100.00;101174.16;4102075;28;20035;-77
2021/08/09 02:37:39;;;;;;;10.13;2.83;;;16.30;99.90;;;15.99;100.00;101194.53;4118079;28;20581;-77
2021/08/09 02:39:41;;;;;;;6.95;2.60;;;16.30;99.90;;;15.96;100.00;101179.75;4117957;28;20041;-77
2021/08/09 02:41:43;;;;;;;9.35;2.78;;;16.30;99.90;;;15.96;100.00;101179.75;4117860;28;20462;-77
2021/08/09 02:43:45;;;;;;;5.95;3.05;;;16.30;99.90;;;15.89;100.00;101177.97;4121020;28;20031;-76
2021/08/09 02:45:49;;;;;;;7.07;2.42;;;16.30;99.90;;;15.96;100.00;101168.28;4120926;28;20027;-76
2021/08/09 02:47:51;;;;;;;6.18;2.08;;;16.30;99.90;;;15.84;100.00;101162.56;4121241;28;20490;-76
2021/08/09 02:49:53;;;;;;;4.65;2.53;;;16.30;99.90;;;15.76;100.00;101167.97;4121018;28;20426;-76
2021/08/09 02:51:55;;;;;;;5.38;2.20;;;16.20;99.90;;;15.79;100.00;101169.44;4120841;28;20046;-77
2021/08/09 02:53:56;;;;;;;6.07;2.70;;;16.20;99.90;;;15.78;100.00;101175.75;4136802;28;20026;-77
2021/08/09 02:56:01;;;;;;;7.15;2.70;;;16.20;99.90;;;15.77;100.00;101174.94;4153246;28;20056;-76
2021/08/09 02:58:07;;;;;;;6.07;2.50;;;16.10;99.90;;;15.72;100.00;101165.84;4120909;28;20090;-76
2021/08/09 03:00:09;;;;;;;6.65;2.65;;;16.10;99.90;;;15.85;100.00;101174.88;4121187;28;20058;-77
2021/08/09 03:02:14;;;;;;;6.18;2.50;;;16.20;99.90;;;15.79;100.00;101174.78;4120646;28;20090;-77
2021/08/09 03:04:20;;;;;;;6.85;2.47;;;16.20;99.90;;;15.82;100.00;101166.44;4152806;28;20040;-76
2021/08/09 03:06:23;;;;;;;4.82;2.85;;;16.20;99.90;;;15.91;100.00;101170.66;4120741;28;20082;-76
2021/08/09 03:08:28;;;;;;;5.90;2.47;;;16.20;99.90;;;15.80;100.00;101155.94;4121016;28;20057;-76
2021/08/09 03:10:29;;;;;;;5.70;2.47;;;16.20;99.90;;;15.74;100.00;101163.84;4120712;28;20030;-76
2021/08/09 03:12:30;;;;;;;6.90;2.85;;;16.20;99.90;;;15.74;100.00;101158.53;4120433;28;20034;-76
2021/08/09 03:14:31;;;;;;;7.07;2.78;;;16.10;99.90;;;15.56;100.00;101140.19;4120685;28;20039;-76
2021/08/09 03:16:34;;;;;;;5.57;2.75;;;16.20;99.90;;;15.75;100.00;101160.16;4120551;28;20034;-76
2021/08/09 03:18:35;;;;;;;6.43;2.47;;;16.10;99.90;;;15.78;100.00;101157.16;4136391;28;20055;-77
2021/08/09 03:20:35;;;;;;;7.43;3.10;;;16.10;99.90;;;15.75;100.00;101150.34;4121845;28;20027;-76
2021/08/09 03:22:36;;;;;;;7.65;3.47;;;16.10;99.90;;;15.73;100.00;101155.03;4121793;28;20031;-77
2021/08/09 03:24:39;;;;;;;10.00;3.03;;;16.20;99.90;;;15.86;100.00;101160.56;4121614;28;20035;-77
2021/08/09 03:26:39;;;;;;;10.50;3.60;;;16.20;99.90;;;16.02;100.00;101163.06;4120028;28;20589;-77
2021/08/09 03:28:40;;;;;;;6.70;3.17;;;16.20;99.90;;;16.02;100.00;101171.06;4121683;28;20031;-77
2021/08/09 03:30:41;;;;;;;9.55;3.35;;;16.20;99.90;;;15.84;100.00;101173.22;4121652;28;20065;-76
2021/08/09 03:32:42;;;;;;;5.28;2.50;;;16.20;99.90;;;15.91;100.00;101165.34;4121503;28;20030;-76
2021/08/09 03:34:43;;;;;;;7.30;2.70;;;16.20;99.90;;;15.96;100.00;101174.44;4121380;28;20023;-76
2021/08/09 03:36:46;;;;;;;5.85;2.30;;;16.20;99.90;;;15.86;100.00;101179.19;4121735;28;20034;-76
2021/08/09 03:38:47;;;;;;;7.97;2.65;;;16.30;99.90;;;15.86;100.00;101162.41;4121482;28;20030;-76
2021/08/09 03:40:48;;;;;;;6.30;2.60;;;16.20;99.90;;;15.79;100.00;101169.44;4103955;29;20047;-76
2021/08/09 03:42:49;;;;;;;9.00;2.83;;;16.20;99.90;;;15.91;100.00;101168.84;4135890;28;20541;-76
2021/08/09 03:44:50;;;;;;;8.18;2.83;;;16.20;99.90;;;15.74;100.00;101161.19;4120230;28;20061;-76
2021/08/09 03:46:51;;;;;;;8.60;3.00;;;16.20;99.90;;;15.77;100.00;101174.13;4121381;28;20063;-76
2021/08/09 03:48:52;;;;;;;12.07;3.08;;;16.20;99.90;;;15.73;100.00;101178.97;4121296;28;20085;-77
2021/08/09 03:50:52;;;;;;;14.70;3.58;;;16.10;99.90;;;15.63;100.00;101175.72;4107094;28;20019;-77
2021/08/09 03:52:55;;;;;;;5.60;2.55;;;16.10;99.90;;;15.70;100.00;101175.84;4105325;28;20032;-77
2021/08/09 03:54:56;;;;;;;8.70;3.22;;;16.10;99.90;;;15.69;100.00;101184.81;4104280;28;20023;-77
2021/08/09 03:56:57;;;;;;;8.77;3.28;;;16.10;99.90;;;15.79;100.00;101186.25;4104894;28;20035;-76
2021/08/09 03:58:58;;;;;;;4.45;2.63;;;16.10;99.90;;;15.71;100.00;101180.16;4105045;28;20399;-77
2021/08/09 04:00:58;;;;;;;5.25;2.65;;;16.10;99.90;;;15.60;100.00;101172.59;4104958;28;20042;-76
2021/08/09 04:02:59;;;;;;;8.57;2.55;;;16.00;99.90;;;15.69;100.00;101184.81;4103895;28;20027;-76
2021/08/09 04:05:00;;;;;;;6.22;2.83;;;16.10;99.90;;;15.81;100.00;101192.19;4119821;28;20096;-77
2021/08/09 04:07:01;;;;;;;10.77;3.17;;;16.10;99.90;;;15.74;100.00;101159.31;4104854;28;20031;-76
2021/08/09 04:09:02;;;;;;;7.85;3.00;;;16.10;99.90;;;15.70;100.00;101182.00;4105057;28;20487;-76
2021/08/09 04:11:03;;;;;;;6.03;3.10;;;16.00;99.90;;;15.69;100.00;101177.66;4104716;28;20126;-76
2021/08/09 04:13:04;;;;;;;8.15;2.90;;;16.00;99.90;;;15.68;100.00;101172.53;4103756;28;20032;-77
2021/08/09 04:15:07;;;;;;;8.80;3.15;;;16.00;99.90;;;15.80;100.00;101179.88;4119523;28;20095;-76
2021/08/09 04:17:08;;;;;;;8.53;2.93;;;16.10;99.90;;;15.89;100.00;101176.16;4103916;28;20038;-77
2021/08/09 04:19:09;;;;;;;5.43;2.75;;;16.10;99.90;;;15.79;100.00;101180.09;4087736;28;20400;-77
2021/08/09 04:21:10;;;;;;;7.03;2.60;;;16.10;99.90;;;15.77;100.00;101182.91;4103582;28;20050;-76
2021/08/09 04:23:11;;;;;;;6.40;2.42;;;16.10;99.90;;;15.79;100.00;101164.13;4103455;28;20032;-76
2021/08/09 04:25:12;;;;;;;3.47;2.35;;;16.10;99.90;;;15.72;100.00;101168.50;4116463;28;20043;-77
2021/08/09 04:27:13;;;;;;;7.93;2.70;;;16.10;99.90;;;15.77;100.00;101182.09;4103349;28;20442;-77
2021/08/09 04:29:13;;;;;;;10.35;3.13;;;16.10;99.90;;;15.83;100.00;101168.09;4103378;29;20032;-76
2021/08/09 04:31:15;;;;;;;5.82;2.53;;;16.10;99.90;;;15.77;100.00;101180.25;4119447;28;20070;-77
2021/08/09 04:33:15;;;;;;;7.72;2.55;;;16.10;99.90;;;15.76;100.00;101178.63;4119305;28;20581;-76
2021/08/09 04:35:16;;;;;;;7.60;2.72;;;16.10;99.90;;;15.72;100.00;101165.84;4120583;28;20030;-76
2021/08/09 04:37:19;;;;;;;9.70;3.47;;;16.00;99.90;;;15.77;100.00;101171.47;4119390;28;20114;-77
2021/08/09 04:39:20;;;;;;;11.50;2.88;;;16.10;99.90;;;15.77;100.00;101179.44;4120571;28;20035;-76
2021/08/09 04:41:21;;;;;;;7.15;3.20;;;16.10;99.90;;;15.69;100.00;101174.19;4107413;28;20141;-77
2021/08/09 04:43:22;;;;;;;6.93;2.58;;;16.10;99.90;;;15.69;100.00;101177.66;4103481;28;20034;-77
2021/08/09 04:45:25;;;;;;;5.57;3.08;;;16.00;99.90;;;15.74;100.00;101172.63;4151631;28;20517;-77
2021/08/09 04:47:26;;;;;;;7.35;2.53;;;16.10;99.90;;;15.74;100.00;101177.16;4119167;28;20023;-77
2021/08/09 04:49:27;;;;;;;7.18;2.75;;;16.10;99.90;;;15.69;100.00;101176.84;4119529;28;20526;-77
2021/08/09 04:51:28;;;;;;;7.00;2.90;;;16.10;99.90;;;15.64;100.00;101180.03;4119361;28;20034;-77
2021/08/09 04:53:30;;;;;;;7.35;2.50;;;16.00;99.90;;;15.67;100.00;101163.72;4151593;28;20057;-77
2021/08/09 04:55:31;;;;;;;6.97;3.20;;;16.00;99.90;;;15.61;100.00;101185.72;4120233;28;20035;-77
2021/08/09 04:57:32;;;;;;;9.00;3.10;;;16.00;99.90;;;15.60;100.00;101181.38;4151148;28;20076;-77
2021/08/09 04:59:32;;;;;;;7.82;3.03;;;16.00;99.90;;;15.62;100.00;101175.91;4135234;28;20030;-77
2021/08/09 05:01:33;;;;;;;6.05;2.90;;;16.00;99.90;;;15.64;100.00;101189.84;4118963;28;20031;-76
2021/08/09 05:03:40;;;;;;;6.18;2.55;;;16.00;99.90;;;15.56;100.00;101177.41;4119083;28;20034;-76
2021/08/09 05:05:45;;;;;;;7.10;3.13;;;16.00;99.90;;;15.67;100.00;101192.16;4118744;28;20034;-77
2021/08/09 05:07:46;;;;;;;6.40;2.58;;;16.00;99.90;;;15.66;100.00;101182.50;4118993;28;20101;-76
2021/08/09 05:09:47;;;;;;;6.15;2.72;;;16.00;99.90;;;15.64;100.00;101179.22;4120040;28;20026;-76
2021/08/09 05:11:48;;;;;;;9.25;3.00;;;16.00;99.90;;;15.42;100.00;101149.75;4119641;28;20463;-76
2021/08/09 05:13:49;;;;;;;5.50;2.47;;;16.00;99.90;;;15.69;100.00;101182.16;4151044;28;20419;-76
2021/08/09 05:15:50;;;;;;;5.60;3.10;;;16.00;99.90;;;15.72;100.00;101187.94;4134726;28;20038;-77
2021/08/09 05:17:50;;;;;;;5.78;2.88;;;16.00;99.90;;;15.69;100.00;101193.63;4134931;28;20089;-77
2021/08/09 05:19:53;;;;;;;7.50;2.90;;;16.00;99.90;;;15.63;100.00;101193.50;4134598;28;20076;-77
2021/08/09 05:21:54;;;;;;;4.78;2.40;;;16.10;99.90;;;15.63;100.00;101180.19;4120202;28;20030;-77
2021/08/09 05:23:55;;;;;;;8.18;2.58;;;16.10;99.90;;;15.83;100.00;101198.16;4118814;28;20038;-77
2021/08/09 05:25:56;;;;;;;8.27;2.70;;;16.10;99.90;;;15.84;100.00;101197.16;4119638;28;20033;-77
2021/08/09 05:27:57;;;;;;;5.22;2.38;;;16.10;99.90;;;15.83;100.00;101186.72;4119872;28;20053;-77
2021/08/09 05:29:58;;;;;;;6.85;2.40;;;16.10;99.90;;;15.76;100.00;101191.09;4119746;28;20062;-76
2021/08/09 05:31:59;;;;;;;4.38;2.40;;;16.10;99.90;;;15.72;100.00;101195.94;4118190;28;20533;-77
2021/08/09 05:34:01;;;;;;;5.47;2.35;;;16.10;99.90;;;15.60;100.00;101180.56;4117719;28;20109;-77
2021/08/09 05:36:04;;;;;;;5.43;2.60;;;16.10;99.90;;;15.61;100.00;101184.88;4122149;28;20136;-77
2021/08/09 05:38:04;;;;;;;6.05;2.67;;;16.10;99.90;;;15.64;100.00;101179.22;4118517;28;20581;-78
2021/08/09 05:40:07;;;;;;;3.67;2.15;;;16.10;99.90;;;15.71;100.00;101182.81;4119947;28;20027;-77
2021/08/09 05:42:08;;;;;;;10.85;3.92;;;16.10;99.90;;;15.73;100.00;101186.13;4133947;28;20062;-77
2021/08/09 05:44:09;;;;;;;7.45;2.60;;;16.20;99.90;;;15.90;100.00;101200.94;4119836;28;20030;-77
2021/08/09 05:46:10;;;;;;;6.80;2.72;;;16.20;99.90;;;15.76;100.00;101188.44;4119748;28;20035;-77
2021/08/09 05:48:11;;;;;;;7.90;3.33;;;16.20;99.90;;;15.84;100.00;101204.31;4119811;28;20034;-77
2021/08/09 05:50:12;;;;;;;6.68;2.40;;;16.30;99.90;;;15.93;100.00;101201.41;4119724;28;20074;-77
2021/08/09 05:52:25;;;;;;;7.13;3.13;;;16.30;99.90;;;15.97;100.00;101210.69;4118258;28;20106;-77
2021/08/09 05:54:26;;;;;;;7.15;3.35;;;16.40;99.90;;;15.98;100.00;101206.19;4119688;28;20038;-77
2021/08/09 05:56:27;;;;;;;6.90;2.47;;;16.30;99.90;;;16.01;100.00;101214.63;4119432;28;20039;-76
2021/08/09 05:58:28;;;;;;;7.57;2.92;;;16.40;99.90;;;16.02;100.00;101202.16;4150559;28;20036;-77
2021/08/09 06:00:29;;;;;;;4.75;2.35;;;16.50;99.90;;;16.10;100.00;101212.72;4119535;28;20038;-77
2021/08/09 06:02:30;;;;;;;5.63;2.58;;;16.50;99.90;;;16.22;100.00;101221.94;4119215;28;20027;-77
2021/08/09 06:04:32;;;;;;;6.88;2.50;;;16.50;99.90;;;16.24;100.00;101219.94;4119593;28;20110;-77
2021/08/09 06:06:33;;;;;;;5.40;2.20;;;16.60;99.90;;;16.17;100.00;101226.97;4118333;28;20027;-76
2021/08/09 06:08:34;;;;;;;7.95;2.92;;;16.60;99.90;;;16.19;100.00;101214.31;4145644;28;20029;-76
2021/08/09 06:10:35;;;;;;;6.93;2.75;;;16.60;99.90;;;16.22;100.00;101215.81;4117696;28;20537;-76
2021/08/09 06:12:36;;;;;;;10.48;2.95;;;16.70;99.90;;;16.20;100.00;101213.31;4121460;28;20058;-76
2021/08/09 06:14:38;;;;;;;5.45;2.85;;;16.70;99.90;;;16.15;100.00;101223.69;4124680;28;20019;-75
2021/08/09 06:16:39;;;;;;;3.95;2.45;;;16.70;99.90;;;16.21;100.00;101233.59;4117921;28;20467;-74
2021/08/09 06:18:40;;;;;;;8.65;2.78;;;16.70;99.90;;;16.31;100.00;101223.50;4120628;28;20034;-75
2021/08/09 06:20:41;;;;;;;4.88;2.67;;;16.80;99.90;;;16.34;100.00;101217.81;4121116;28;20039;-76
2021/08/09 06:22:42;;;;;;;8.60;2.40;;;16.80;99.90;;;16.32;100.00;101219.84;4121951;28;20553;-77
2021/08/09 06:24:43;;;;;;;8.85;2.80;;;16.80;99.90;;;16.37;100.00;101214.78;4136372;28;20030;-77
2021/08/09 06:26:44;;;;;;;5.35;3.05;;;16.90;99.90;;;16.37;100.00;101230.75;4120272;28;20031;-77
2021/08/09 06:28:45;;;;;;;5.47;2.80;;;16.90;99.90;;;16.35;100.00;101218.66;4120844;28;20066;-77
2021/08/09 06:30:46;;;;;;;7.50;2.70;;;16.90;99.90;;;16.46;100.00;101226.19;4130056;28;20031;-77
2021/08/09 06:32:46;;;;;;;8.50;3.30;;;17.00;99.90;;;16.48;100.00;101227.69;4120848;28;20495;-76
2021/08/09 06:34:47;;;;;;;5.80;2.80;;;17.00;99.90;;;16.66;100.00;101226.50;4120207;28;20027;-76
2021/08/09 06:36:48;;;;;;;6.18;2.67;;;17.10;99.90;;;16.61;100.00;101235.03;4136770;28;20034;-76
2021/08/09 06:38:49;;;;;;;5.63;2.67;;;17.10;99.90;;;16.66;100.00;101226.50;4119389;28;20459;-75
2021/08/09 06:40:50;;;;;;;6.15;2.83;;;17.20;99.90;;;16.64;100.00;101225.84;4118457;28;20085;-75
2021/08/09 06:42:51;;;;;;;4.65;2.42;;;17.20;99.90;;;16.71;100.00;101242.78;4136501;28;20027;-77
2021/08/09 06:44:52;;;;;;;7.10;2.55;;;17.20;99.90;;;16.51;100.00;101232.63;4121477;28;20034;-77
2021/08/09 06:46:53;;;;;;;5.18;2.38;;;17.20;99.90;;;16.59;100.00;101234.41;4152855;28;20056;-76
2021/08/09 06:48:54;;;;;;;7.80;2.95;;;17.20;99.90;;;16.69;100.00;101239.47;4136713;28;20031;-76
2021/08/09 06:50:55;;;;;;;6.35;2.15;;;17.20;99.90;;;16.62;100.00;101241.19;4121518;28;20402;-76
2021/08/09 06:52:56;;;;;;;4.85;2.47;;;17.20;99.90;;;16.71;100.00;101242.78;4116161;28;20027;-76
2021/08/09 06:55:01;;;;;;;6.68;2.78;;;17.30;99.90;;;16.76;100.00;101243.03;4103911;28;20030;-76
2021/08/09 06:57:02;;;;;;;8.75;2.60;;;17.30;99.90;;;16.79;100.00;101237.34;4104118;28;20109;-76
2021/08/09 06:59:03;;;;;;;8.27;2.42;;;17.30;99.90;;;16.84;100.00;101242.97;4104214;28;20499;-76
2021/08/09 07:01:04;;;;;;;5.40;2.28;;;17.40;99.90;;;16.71;100.00;101238.28;4112853;28;20124;-76
2021/08/09 07:03:07;;;;;;;6.28;2.55;;;17.40;99.90;;;16.81;100.00;101251.31;4104209;28;20416;-74
2021/08/09 07:05:09;;;;;;;6.38;3.75;;;17.40;99.90;;;16.75;100.00;101249.41;4135863;28;20065;-74
2021/08/09 07:07:09;;;;;;;4.88;2.72;;;17.50;99.90;;;16.82;100.00;101245.78;4120314;28;20097;-75
2021/08/09 07:09:10;;;;;;;4.57;2.50;;;17.50;99.90;;;16.99;100.00;101259.78;4120210;28;20023;-74
2021/08/09 07:11:11;;;;;;;5.85;3.28;;;17.60;99.90;;;17.06;100.00;101252.66;4116586;28;20062;-75
2021/08/09 07:13:12;;;;;;;5.60;2.95;;;17.70;99.90;;;17.13;100.00;101258.91;4119803;28;20019;-76
2021/08/09 07:15:13;;;;;;;6.88;3.30;;;17.80;99.90;;;17.21;100.00;101256.16;4117955;28;20038;-75
2021/08/09 07:17:14;;;;;;;14.48;4.63;;;17.90;99.90;;;17.27;100.00;101250.06;4134808;28;20030;-74
2021/08/09 07:19:15;;;;;;;7.75;3.38;;;18.00;99.90;;;17.40;100.00;101265.41;4119402;28;20027;-77
2021/08/09 07:21:16;;;;;;;3.55;2.70;;;18.00;99.90;;;17.38;100.00;101262.91;4119535;28;20027;-77
2021/08/09 07:23:17;;;;;;;7.82;2.45;;;18.10;99.90;;;17.39;100.00;101264.56;4118474;28;20034;-77
2021/08/09 07:25:19;;;;;;;7.35;3.20;;;18.10;99.90;;;17.39;100.00;101256.56;4118011;28;20030;-77
2021/08/09 07:27:20;;;;;;;6.55;3.10;;;18.20;99.90;;;17.39;100.00;101248.56;4117984;28;20027;-77
2021/08/09 07:29:21;;;;;;;6.30;2.78;;;18.30;99.90;;;17.59;100.00;101268.31;4119390;28;20030;-77
2021/08/09 07:31:22;;;;;;;6.00;2.53;;;18.40;99.90;;;17.58;100.00;101264.00;4117954;28;20033;-77
2021/08/09 07:33:23;;;;;;;7.47;2.83;;;18.40;99.90;;;17.56;100.00;101260.69;4133974;28;20061;-77
2021/08/09 07:35:24;;;;;;;5.10;2.75;;;18.40;99.90;;;17.51;100.00;101268.41;4117887;28;20023;-77
2021/08/09 07:37:25;;;;;;;5.35;2.50;;;18.30;99.90;;;17.55;100.00;101267.06;4126089;28;20109;-77
2021/08/09 07:39:27;;;;;;;9.20;3.78;;;18.30;99.90;;;17.54;100.00;101257.38;4117952;28;20137;-77
2021/08/09 07:41:28;;;;;;;5.28;2.47;;;18.30;99.90;;;17.37;100.00;101271.94;4117825;28;20059;-77
2021/08/09 07:43:30;;;;;;;4.53;2.67;;;18.10;99.90;;;17.35;100.00;101273.16;4118231;28;20034;-77
2021/08/09 07:45:31;;;;;;;7.40;2.60;;;18.10;99.90;;;17.33;100.00;101275.97;4117929;28;20035;-77
2021/08/09 07:47:32;;;;;;;5.18;2.67;;;18.10;99.90;;;17.36;100.00;101280.94;4118996;28;20082;-76
2021/08/09 07:49:33;;;;;;;6.45;2.92;;;18.00;99.90;;;17.32;100.00;101266.34;4117972;28;20494;-77
2021/08/09 07:51:34;;;;;;;5.88;2.45;;;18.00;99.90;;;17.40;100.00;101270.72;4119237;28;20114;-77
2021/08/09 07:53:35;;;;;;;5.03;2.67;;;18.00;99.90;;;17.35;100.00;101257.94;4119603;28;20098;-77
2021/08/09 07:55:36;;;;;;;5.82;2.47;;;18.10;99.90;;;17.33;100.00;101267.97;4119162;28;20066;-77
2021/08/09 07:57:37;;;;;;;6.85;2.13;;;18.00;99.90;;;17.37;100.00;101277.28;4101921;29;20494;-77
2021/08/09 07:59:38;;;;;;;4.80;2.03;;;18.10;99.90;;;17.32;100.00;101270.84;4119533;28;20038;-77
2021/08/09 08:01:39;;;;;;;6.22;1.92;;;18.00;99.90;;;17.45;100.00;101274.50;4118417;28;20034;-77
2021/08/09 08:03:39;;;;;;;3.35;1.90;;;18.10;99.90;;;17.51;100.00;101284.41;4119153;28;20030;-76
2021/08/09 08:05:40;;;;;;;5.65;1.63;;;18.10;99.90;;;17.51;100.00;101273.75;4118050;28;20031;-77
2021/08/09 08:07:41;;;;;;;3.78;2.15;;;18.10;99.90;;;17.50;100.00;101277.41;4133729;28;20037;-77
2021/08/09 08:09:42;;;;;;;4.15;1.88;;;18.20;99.90;;;17.49;100.00;101274.94;4117942;28;20026;-77
2021/08/09 08:11:43;;;;;;;3.80;1.67;;;18.20;99.90;;;17.58;100.00;101279.19;4118030;28;20537;-77
2021/08/09 08:13:44;;;;;;;3.85;1.80;;;18.30;99.90;;;17.64;100.00;101273.94;4116270;28;20402;-77
2021/08/09 08:15:45;;;;;;;4.88;2.17;;;18.40;99.90;;;17.78;100.00;101279.38;4116538;28;20033;-76
2021/08/09 08:17:46;;;;;;;4.28;2.05;;;18.50;99.90;;;17.78;100.00;101276.72;4134835;28;20457;-75
2021/08/09 08:19:47;;;;;;;4.80;1.73;;;18.60;99.90;;;17.78;100.00;101274.03;4111236;28;20518;-76
2021/08/09 08:21:48;;;;;;;4.95;2.03;;;18.60;99.90;;;17.71;100.00;101266.00;4121472;28;20034;-73
2021/08/09 08:23:49;;;;;;;4.22;2.00;;;18.60;99.90;;;17.63;100.00;101274.94;4118597;28;20689;-74